Waukesha, Wisconsin
Current Conditions -  °F | °C
As of 12:35 AM on Monday 24 Nov 2014 (Local Time) from KUES Reporting Station
Moderate Rain Moderate Rain  
Wind Chill: 43°   Ceiling: 300
Heat Index: 43°   Visibility: 0.75mi
Dew Point: 43°   Wind: 3mph
Humidity: 100%   Direction: 280°W
Pressure: 29.08"   Gusts: NA
Location:  43.01°N, 88.23°W
Report Text: KUES 240635Z AUTO 28003KT 3/4SM RA OVC003 06/06 A2908 RMK AO2
Loading
Personal Weather Stations






























Interactive Weather Map New forecast layout! Learn more

10-Day Weather Forecast

Advertisements
Track Severe Weather on mobile